General Mariano Escobedo International Airport
MMMY : now visible

Airfield :











YOU CAN JOIN US ON...

 
LOGIN :

Register | Disclaimer

   EN    FR    IT 

 









Legend :    VFR   Marginal VFR   IFR   Intensive IFR   Very Intensive IFR
Visi :
Ceiling :
>= 8 km
>= 3000ft
5 to 8 km
1000 to 3000 ft
1500m to 5 km
500 to 1000 ft
800 to 1500m
200 to 500 ft
< 800m
< 200 ft
Symbols :   Thunderstorms  Fog  Heavy snow  Heavy precipitations  Wind > 20 kt






- Airport Elevation : 1278 ft
- IATA code : MTY


MMMY - General Mariano Escobedo International

CURRENT METAR :
  • 201340Z 11007KT 3SM BR HZ BKN013 OVC018 26/23 A2985 RMK 8/5// BINOVC

EXPIRED METARs :
  • 201259Z 11004KT 2 1/2SM BR HZ BKN013 OVC020 26/23 A2984 RMK 8/5//
  • 201140Z 11008KT 4SM OVC030 26/23 A2981 RMK SLP/// 5//// 9// 8/5// HZY
  • 201040Z 10007KT 4SM BKN030 26/23 A2981 RMK 8/500 HZY
  • 200940Z 10009KT 4SM BKN020 26/23 A2981 RMK 8/500 HZY

TAF TAF MMMY
Valid from the 20 at 12:00 until the 21 at 12:00 UTC


201135Z 2012/2112 10008KT 4SM HZ OVC020 TX39/2022Z TN26/2012Z
TEMPO 2012/2016 2SM BR OVC010
FM201600 12005KT 5SM HZ SCT020
FM201800 13010KT P6SM SCT030
BECMG 2021/2022 13010G20KT
FM210300 13005KT 6SM HZ BKN200
BECMG 2107/2108 OVC015
MMFR FIR / North America



MET'MAP, your aeronautical weather chart ! - Copyright ORBIFLY December 2007 - Disclaimer

ORBIFLY MET'MAP TEAM :

Programming & Development : Alexandra Zaïnal
Original concept : Baudouin d'Aumeries
Technical & hardware support : Manuel Goepfert
Assistance : Marc-Olivier Méhu




SOURCES & CREDITS :

   NOAA       Earth
Advisory